createdAt,value
2023-04-09T00:00:52.718Z,69.91
2023-04-09T00:03:59.148Z,70.06
2023-04-09T00:07:05.381Z,70.12
2023-04-09T00:10:11.632Z,70.15
2023-04-09T00:13:22.760Z,70.21
2023-04-09T00:16:24.996Z,70.21
2023-04-09T00:19:31.440Z,70.24
2023-04-09T00:22:37.592Z,70.28
2023-04-09T00:25:42.678Z,70.28
2023-04-09T00:28:48.023Z,70.29
2023-04-09T00:31:54.401Z,70.37
2023-04-09T00:35:00.137Z,70.42
2023-04-09T00:38:07.296Z,70.49
2023-04-09T00:41:14.319Z,70.52
2023-04-09T00:44:20.933Z,70.50
2023-04-09T00:47:27.607Z,70.50
2023-04-09T00:50:33.124Z,70.53
2023-04-09T00:53:39.013Z,70.54
2023-04-09T00:56:45.429Z,70.46
2023-04-09T00:59:53.804Z,70.50
2023-04-09T01:03:00.849Z,70.52
2023-04-09T01:06:30.755Z,70.54
2023-04-09T01:09:50.608Z,70.57
2023-04-09T01:13:35.671Z,70.59
2023-04-09T01:16:42.060Z,70.56
2023-04-09T01:20:05.870Z,70.63
2023-04-09T01:23:33.818Z,70.68
2023-04-09T01:26:53.005Z,70.69
2023-04-09T01:30:02.751Z,70.66
2023-04-09T01:33:08.942Z,70.63
2023-04-09T01:36:15.106Z,70.58
2023-04-09T01:39:22.503Z,70.58
2023-04-09T01:42:27.444Z,70.53
2023-04-09T01:45:34.448Z,70.46
2023-04-09T01:48:41.374Z,70.40
2023-04-09T01:51:47.993Z,70.35
2023-04-09T01:54:55.050Z,70.41
2023-04-09T01:58:01.306Z,70.45
2023-04-09T02:01:06.463Z,70.44
2023-04-09T02:04:19.565Z,70.39
2023-04-09T02:07:39.016Z,70.36
2023-04-09T02:10:46.417Z,70.42
2023-04-09T02:13:52.801Z,70.50
2023-04-09T02:16:58.784Z,70.52
2023-04-09T02:20:05.194Z,70.57
2023-04-09T02:23:10.563Z,70.57
2023-04-09T02:26:16.042Z,70.60
2023-04-09T02:29:23.041Z,70.57
2023-04-09T02:32:29.060Z,70.57
2023-04-09T02:35:36.866Z,70.50
2023-04-09T02:38:43.169Z,70.58
2023-04-09T02:41:51.877Z,70.71
2023-04-09T02:44:59.635Z,70.77
2023-04-09T02:48:06.191Z,70.82
2023-04-09T02:51:14.752Z,70.88
2023-04-09T02:54:21.228Z,70.86
2023-04-09T02:57:27.278Z,70.82
2023-04-09T03:00:34.984Z,70.81
2023-04-09T03:03:40.930Z,70.84
2023-04-09T03:06:48.275Z,70.87
2023-04-09T03:09:55.107Z,70.86
2023-04-09T03:13:01.145Z,70.91
2023-04-09T03:16:07.388Z,70.98
2023-04-09T03:19:14.239Z,70.95
2023-04-09T03:22:20.464Z,70.85
2023-04-09T03:25:27.736Z,70.85
2023-04-09T03:28:35.141Z,70.89
2023-04-09T03:31:41.837Z,70.89
2023-04-09T03:34:48.644Z,70.85
2023-04-09T03:37:55.585Z,70.86
2023-04-09T03:41:01.004Z,70.88
2023-04-09T03:44:08.401Z,70.89
2023-04-09T03:47:19.224Z,70.79
2023-04-09T03:50:27.735Z,70.87
2023-04-09T03:53:34.747Z,70.88
2023-04-09T03:56:41.192Z,70.90
2023-04-09T03:59:49.195Z,70.97
2023-04-09T04:02:56.845Z,70.99
2023-04-09T04:06:08.999Z,71.03
2023-04-09T04:09:34.030Z,71.07
2023-04-09T04:12:44.345Z,71.11
2023-04-09T04:15:58.824Z,71.13
2023-04-09T04:19:05.709Z,71.12
2023-04-09T04:22:13.067Z,71.16
2023-04-09T04:25:20.134Z,71.14
2023-04-09T04:28:27.604Z,71.10
2023-04-09T04:31:35.385Z,71.11
2023-04-09T04:34:42.730Z,71.13
2023-04-09T04:37:50.831Z,71.10
2023-04-09T04:40:58.204Z,71.10
2023-04-09T04:44:03.921Z,71.08
2023-04-09T04:47:13.236Z,71.19
2023-04-09T04:50:21.151Z,71.24
2023-04-09T04:53:33.019Z,71.33
2023-04-09T04:56:42.170Z,71.31
2023-04-09T05:00:05.396Z,71.34
2023-04-09T05:03:12.950Z,71.39
2023-04-09T05:06:27.063Z,71.35
2023-04-09T05:09:35.119Z,71.33
2023-04-09T05:12:40.212Z,71.32
2023-04-09T05:15:49.132Z,71.35
2023-04-09T05:18:55.415Z,71.31
2023-04-09T05:22:00.997Z,71.37
2023-04-09T05:25:06.616Z,71.42
2023-04-09T05:28:13.821Z,71.37
2023-04-09T05:31:22.222Z,71.38
2023-04-09T05:34:29.838Z,71.34
2023-04-09T05:37:37.467Z,71.42
2023-04-09T05:40:44.777Z,71.34
2023-04-09T05:43:51.549Z,71.32
2023-04-09T05:47:00.277Z,71.45
2023-04-09T05:50:09.032Z,71.45
2023-04-09T05:53:14.650Z,71.46
2023-04-09T05:56:29.654Z,71.46
2023-04-09T05:59:39.696Z,71.42
2023-04-09T06:02:47.499Z,71.18
2023-04-09T06:05:55.619Z,71.17
2023-04-09T06:09:02.225Z,71.23
2023-04-09T06:12:09.342Z,71.30
2023-04-09T06:15:15.171Z,71.29
2023-04-09T06:18:22.462Z,71.48
2023-04-09T06:21:28.520Z,71.48
2023-04-09T06:24:34.256Z,71.55
2023-04-09T06:27:40.378Z,71.45
2023-04-09T06:30:47.660Z,71.45
2023-04-09T06:33:56.096Z,71.47
2023-04-09T06:37:03.079Z,71.46
2023-04-09T06:40:08.995Z,71.33
2023-04-09T06:43:15.118Z,71.35
2023-04-09T06:46:24.725Z,71.31
2023-04-09T06:49:31.998Z,71.38
2023-04-09T06:52:39.995Z,71.48
2023-04-09T06:55:49.812Z,71.39
2023-04-09T06:58:56.502Z,71.22
2023-04-09T07:02:01.703Z,71.03
2023-04-09T07:05:08.897Z,70.92
2023-04-09T07:08:14.980Z,70.81
2023-04-09T07:11:24.952Z,70.73
2023-04-09T07:14:32.814Z,70.76
2023-04-09T07:17:40.472Z,70.81
2023-04-09T07:20:46.707Z,70.77
2023-04-09T07:23:53.612Z,70.63
2023-04-09T07:27:00.250Z,70.48
2023-04-09T07:30:06.698Z,70.33
2023-04-09T07:33:13.414Z,70.11
2023-04-09T07:36:18.953Z,70.14
2023-04-09T07:39:25.662Z,70.16
2023-04-09T07:42:33.395Z,70.18
2023-04-09T07:45:38.604Z,70.24
2023-04-09T07:48:47.144Z,70.07
2023-04-09T07:51:53.186Z,69.98
2023-04-09T07:54:59.852Z,70.06
2023-04-09T07:58:06.593Z,70.19
2023-04-09T08:01:13.850Z,70.34
2023-04-09T08:04:21.358Z,70.33
2023-04-09T08:07:27.464Z,70.46
2023-04-09T08:10:33.566Z,70.52
2023-04-09T08:13:40.417Z,70.51
2023-04-09T08:16:48.011Z,70.42
2023-04-09T08:19:54.343Z,70.49
2023-04-09T08:22:59.886Z,70.48
2023-04-09T08:26:06.880Z,70.57
2023-04-09T08:29:11.681Z,70.54
2023-04-09T08:32:18.295Z,70.70
2023-04-09T08:35:24.673Z,70.81
2023-04-09T08:38:32.391Z,70.96
2023-04-09T08:41:40.202Z,71.19
2023-04-09T08:44:46.471Z,71.26
2023-04-09T08:47:54.658Z,71.29
2023-04-09T08:51:02.366Z,71.21
2023-04-09T08:54:11.778Z,71.33
2023-04-09T08:57:21.046Z,71.29
2023-04-09T09:00:28.626Z,71.37
2023-04-09T09:03:36.738Z,71.49
2023-04-09T09:06:45.947Z,71.62
2023-04-09T09:09:52.995Z,71.64
2023-04-09T09:12:59.488Z,71.55
2023-04-09T09:16:07.052Z,71.45
2023-04-09T09:19:12.938Z,71.35
2023-04-09T09:22:21.589Z,71.29
2023-04-09T09:25:34.183Z,71.28
2023-04-09T09:28:40.626Z,71.28
2023-04-09T09:31:46.683Z,71.28
2023-04-09T09:34:52.943Z,71.28
2023-04-09T09:37:59.149Z,71.23
2023-04-09T09:41:06.879Z,71.22
2023-04-09T09:44:15.761Z,71.20
2023-04-09T09:47:23.481Z,71.19
2023-04-09T09:50:29.874Z,71.37
2023-04-09T09:53:35.447Z,71.34
2023-04-09T09:56:46.500Z,71.36
2023-04-09T09:59:55.834Z,71.21
2023-04-09T10:03:10.478Z,71.40
2023-04-09T10:06:17.127Z,71.45
2023-04-09T10:09:24.532Z,71.41
2023-04-09T10:12:35.373Z,71.50
2023-04-09T10:15:45.637Z,71.71
2023-04-09T10:18:50.768Z,71.77
2023-04-09T10:22:08.066Z,71.74
2023-04-09T10:25:14.132Z,71.68
2023-04-09T10:28:28.219Z,71.65
2023-04-09T10:31:34.657Z,71.73
2023-04-09T10:34:43.205Z,71.76
2023-04-09T10:37:49.519Z,71.83
2023-04-09T10:41:06.728Z,71.69
2023-04-09T10:44:12.678Z,71.74
2023-04-09T10:47:19.997Z,71.83
2023-04-09T10:50:37.770Z,71.84
2023-04-09T10:53:44.346Z,71.88
2023-04-09T10:56:51.114Z,71.91
2023-04-09T11:00:02.625Z,72.04
2023-04-09T11:03:22.769Z,71.96
2023-04-09T11:06:32.009Z,71.95
2023-04-09T11:09:39.643Z,71.87
2023-04-09T11:12:46.221Z,71.64
2023-04-09T11:15:52.036Z,71.36
2023-04-09T11:19:00.629Z,70.99
2023-04-09T11:22:07.002Z,70.73
2023-04-09T11:25:15.924Z,70.59
2023-04-09T11:28:22.985Z,70.56
2023-04-09T11:31:29.804Z,70.51
2023-04-09T11:34:37.136Z,70.36
2023-04-09T11:37:44.063Z,70.14
2023-04-09T11:40:57.988Z,70.11
2023-04-09T11:44:00.391Z,69.97
2023-04-09T11:47:09.734Z,70.06
2023-04-09T11:50:16.699Z,69.93
2023-04-09T11:53:37.473Z,69.72
2023-04-09T11:56:45.322Z,69.37
2023-04-09T11:59:53.751Z,69.44
2023-04-09T12:03:02.091Z,69.60
2023-04-09T12:06:08.424Z,69.64
2023-04-09T12:09:13.550Z,69.77
2023-04-09T12:12:22.728Z,69.68
2023-04-09T12:15:37.554Z,69.49
2023-04-09T12:18:42.501Z,69.11
2023-04-09T12:22:10.169Z,69.03
2023-04-09T12:25:16.277Z,69.25
2023-04-09T12:28:25.472Z,69.49
2023-04-09T12:31:31.540Z,69.18
2023-04-09T12:34:39.729Z,69.02
2023-04-09T12:37:47.727Z,68.94
2023-04-09T12:40:55.324Z,68.95
2023-04-09T12:44:00.858Z,68.54
2023-04-09T12:47:07.996Z,67.84
2023-04-09T12:50:14.078Z,67.87
2023-04-09T12:53:20.993Z,67.54
2023-04-09T12:56:29.765Z,67.38
2023-04-09T12:59:29.148Z,67.43
2023-04-09T13:02:36.433Z,67.63
2023-04-09T13:05:43.780Z,67.82
2023-04-09T13:08:50.036Z,68.01
2023-04-09T13:11:56.250Z,68.23
2023-04-09T13:15:03.772Z,68.30
2023-04-09T13:18:10.175Z,68.16
2023-04-09T13:21:16.157Z,68.35
2023-04-09T13:24:22.314Z,68.35
2023-04-09T13:27:29.222Z,68.34
2023-04-09T13:30:37.304Z,68.42
2023-04-09T13:33:43.737Z,68.39
2023-04-09T13:36:48.506Z,68.45
2023-04-09T13:39:55.025Z,68.21
2023-04-09T13:43:02.890Z,68.16
2023-04-09T13:46:11.352Z,68.33
2023-04-09T13:49:17.641Z,68.42
2023-04-09T13:52:26.839Z,68.62
2023-04-09T13:55:33.524Z,68.76
2023-04-09T13:58:40.652Z,68.87
2023-04-09T14:01:48.915Z,68.96
2023-04-09T14:04:56.963Z,68.92
2023-04-09T14:08:05.332Z,68.98
2023-04-09T14:11:11.270Z,69.09
2023-04-09T14:14:18.475Z,69.16
2023-04-09T14:17:25.680Z,69.31
2023-04-09T14:20:34.448Z,69.39
2023-04-09T14:23:43.242Z,69.49
2023-04-09T14:26:48.679Z,69.64
2023-04-09T14:29:55.786Z,69.82
2023-04-09T14:33:03.173Z,70.00
2023-04-09T14:36:09.084Z,69.99
2023-04-09T14:39:16.609Z,69.88
2023-04-09T14:42:21.627Z,70.01
2023-04-09T14:45:30.453Z,69.95
2023-04-09T14:48:38.336Z,70.04
2023-04-09T14:51:45.402Z,69.97
2023-04-09T14:54:54.235Z,69.95
2023-04-09T14:58:00.456Z,69.96
2023-04-09T15:01:06.515Z,70.02
2023-04-09T15:04:14.120Z,69.93
2023-04-09T15:07:21.834Z,70.11
2023-04-09T15:10:28.049Z,70.18
2023-04-09T15:13:33.624Z,70.24
2023-04-09T15:16:44.316Z,70.21
2023-04-09T15:19:49.833Z,70.18
2023-04-09T15:22:56.199Z,70.22
2023-04-09T15:26:03.225Z,70.37
2023-04-09T15:29:19.191Z,70.39
2023-04-09T15:32:26.310Z,70.40
2023-04-09T15:35:35.964Z,70.29
2023-04-09T15:38:42.324Z,70.34
2023-04-09T15:41:48.664Z,70.19
2023-04-09T15:44:54.913Z,70.30
2023-04-09T15:48:02.615Z,70.42
2023-04-09T15:51:09.676Z,70.56
2023-04-09T15:54:16.956Z,70.60
2023-04-09T15:57:24.352Z,70.59
2023-04-09T16:00:32.092Z,70.62
2023-04-09T16:03:40.706Z,70.64
2023-04-09T16:06:47.877Z,70.68
2023-04-09T16:09:54.254Z,70.73
2023-04-09T16:13:00.814Z,70.82
2023-04-09T16:16:09.068Z,70.91
2023-04-09T16:19:16.414Z,70.97
2023-04-09T16:22:23.479Z,70.99
2023-04-09T16:25:31.786Z,71.09
2023-04-09T16:28:38.475Z,71.21
2023-04-09T16:31:45.551Z,71.27
2023-04-09T16:34:51.364Z,71.36
2023-04-09T16:37:58.906Z,71.37
2023-04-09T16:41:04.973Z,71.36
2023-04-09T16:44:12.222Z,71.44
2023-04-09T16:47:20.190Z,71.52
2023-04-09T16:50:28.105Z,71.53
2023-04-09T16:53:33.504Z,71.53
2023-04-09T16:56:39.855Z,71.57
2023-04-09T16:59:47.102Z,71.63
2023-04-09T17:02:53.197Z,71.68
2023-04-09T17:06:01.672Z,71.61
2023-04-09T17:09:11.430Z,71.57
2023-04-09T17:12:19.314Z,71.65
2023-04-09T17:15:26.423Z,71.61
2023-04-09T17:18:34.363Z,71.64
2023-04-09T17:21:41.227Z,71.57
2023-04-09T17:24:46.190Z,71.68
2023-04-09T17:27:53.786Z,71.79
2023-04-09T17:30:59.863Z,71.95
2023-04-09T17:34:06.933Z,72.07
2023-04-09T17:37:14.943Z,72.14
2023-04-09T17:40:26.248Z,72.12
2023-04-09T17:43:35.734Z,72.11
2023-04-09T17:46:43.452Z,72.12
2023-04-09T17:49:49.882Z,72.15
2023-04-09T17:52:57.497Z,72.21
2023-04-09T17:56:04.334Z,72.22
2023-04-09T17:59:10.147Z,72.26
2023-04-09T18:02:16.759Z,72.29
2023-04-09T18:05:25.490Z,72.34
2023-04-09T18:08:32.251Z,72.39
2023-04-09T18:11:40.696Z,72.37
2023-04-09T18:14:46.454Z,72.34
2023-04-09T18:17:53.798Z,72.33
2023-04-09T18:20:59.894Z,72.33
2023-04-09T18:24:06.741Z,72.40
2023-04-09T18:27:15.386Z,72.43
2023-04-09T18:30:23.027Z,72.39
2023-04-09T18:33:29.834Z,72.36
2023-04-09T18:36:35.948Z,72.45
2023-04-09T18:39:43.245Z,72.48
2023-04-09T18:42:48.437Z,72.54
2023-04-09T18:45:54.755Z,72.61
2023-04-09T18:49:02.176Z,72.65
2023-04-09T18:52:12.568Z,72.71
2023-04-09T18:55:18.988Z,72.75
2023-04-09T18:58:24.346Z,72.79
2023-04-09T19:01:31.252Z,72.74
2023-04-09T19:04:39.804Z,72.73
2023-04-09T19:07:46.667Z,72.76
2023-04-09T19:10:54.082Z,72.87
2023-04-09T19:14:00.536Z,72.83
2023-04-09T19:17:08.917Z,72.93
2023-04-09T19:20:15.869Z,73.01
2023-04-09T19:23:21.100Z,73.00
2023-04-09T19:26:28.103Z,73.08
2023-04-09T19:29:34.599Z,72.99
2023-04-09T19:32:42.188Z,73.06
2023-04-09T19:35:48.106Z,73.13
2023-04-09T19:38:54.456Z,73.23
2023-04-09T19:42:00.999Z,73.25
2023-04-09T19:45:09.888Z,73.28
2023-04-09T19:48:16.120Z,73.28
2023-04-09T19:51:22.491Z,73.35
2023-04-09T19:54:28.489Z,73.29
2023-04-09T19:57:34.838Z,73.31
2023-04-09T20:00:44.491Z,73.25
2023-04-09T20:03:52.638Z,73.31
2023-04-09T20:06:59.077Z,73.37
2023-04-09T20:10:05.911Z,73.39
2023-04-09T20:13:14.897Z,73.40
2023-04-09T20:16:21.766Z,73.37
2023-04-09T20:19:29.206Z,73.45
2023-04-09T20:22:36.422Z,73.53
2023-04-09T20:25:43.818Z,73.53
2023-04-09T20:28:50.869Z,73.52
2023-04-09T20:31:59.061Z,73.58
2023-04-09T20:35:06.014Z,73.61
2023-04-09T20:38:11.862Z,73.58
2023-04-09T20:41:17.087Z,73.61
2023-04-09T20:44:23.506Z,73.68
2023-04-09T20:47:30.743Z,73.75
2023-04-09T20:50:38.037Z,73.74
2023-04-09T20:53:45.685Z,73.71
2023-04-09T20:56:51.122Z,73.71
2023-04-09T20:59:59.616Z,73.48
2023-04-09T21:03:07.060Z,73.52
2023-04-09T21:06:14.047Z,73.62
2023-04-09T21:09:20.668Z,73.76
2023-04-09T21:12:27.542Z,73.77
2023-04-09T21:15:34.772Z,73.72
2023-04-09T21:18:40.965Z,73.76
2023-04-09T21:21:50.883Z,73.80
2023-04-09T21:24:56.862Z,73.79
2023-04-09T21:28:04.772Z,73.76
2023-04-09T21:31:11.654Z,73.75
2023-04-09T21:34:17.749Z,73.77
2023-04-09T21:37:24.761Z,73.81
2023-04-09T21:40:30.223Z,73.69
2023-04-09T21:43:39.777Z,73.75
2023-04-09T21:46:44.645Z,73.82
2023-04-09T21:49:50.184Z,73.86
2023-04-09T21:52:56.086Z,73.89
2023-04-09T21:56:04.675Z,73.96
2023-04-09T21:59:09.343Z,73.92
2023-04-09T22:02:15.466Z,73.90
2023-04-09T22:05:22.016Z,73.96
2023-04-09T22:08:29.166Z,73.92
2023-04-09T22:11:35.121Z,73.86
2023-04-09T22:14:42.461Z,73.88
2023-04-09T22:17:48.923Z,73.87
2023-04-09T22:20:54.732Z,73.86
2023-04-09T22:24:00.758Z,73.93
2023-04-09T22:27:08.412Z,73.95
2023-04-09T22:30:16.573Z,73.97
2023-04-09T22:33:22.227Z,73.98
2023-04-09T22:36:28.526Z,73.98
2023-04-09T22:39:34.898Z,74.03
2023-04-09T22:42:41.367Z,74.07
2023-04-09T22:45:48.706Z,73.98
2023-04-09T22:49:04.183Z,74.02
2023-04-09T22:52:04.623Z,74.07
2023-04-09T22:55:11.550Z,74.07
2023-04-09T22:58:17.086Z,74.11
2023-04-09T23:01:25.502Z,74.14
2023-04-09T23:04:31.875Z,74.16
2023-04-09T23:07:38.196Z,74.17
2023-04-09T23:10:44.032Z,74.18
2023-04-09T23:13:50.182Z,74.17
2023-04-09T23:16:55.045Z,74.20
2023-04-09T23:20:01.600Z,74.22
2023-04-09T23:23:08.221Z,74.25
2023-04-09T23:26:16.864Z,74.28
2023-04-09T23:29:23.023Z,74.32
2023-04-09T23:32:30.514Z,74.30
2023-04-09T23:35:36.073Z,74.27
2023-04-09T23:38:44.775Z,74.26
2023-04-09T23:41:51.037Z,74.26
2023-04-09T23:44:56.949Z,74.26
2023-04-09T23:48:04.400Z,74.29
2023-04-09T23:51:11.951Z,74.31
2023-04-09T23:54:17.629Z,74.32
2023-04-09T23:57:25.504Z,74.35
